< Typhoon 200120 2001 Season Typhoon 200122 >
Typhoon 200121 (HAIYAN)
General InformationTrack Information on Google MapsDetailed Wind InformationList of All Images || NewsDisaster Info.ResourceGoogle EarthGE AnimationAtom FeedGeoJSON
Detalied Best Track (Time Zone = UTC)
Year Month Day Hour Lat. Long. Pressure (hPa) Wind (kt) Class Image Chart
2001 10 11 18 16.8 131.0 1004 0 2 Image Chart
2001 10 12 00 17.3 130.7 1004 0 2 Image Chart
2001 10 12 06 17.3 130.4 1002 0 2 Image Chart
2001 10 12 12 17.3 130.2 1000 35 3 Image Chart
2001 10 12 18 17.8 129.8 996 35 3 Image Chart
2001 10 13 00 18.6 129.8 994 40 3 Image Chart
2001 10 13 06 18.6 129.9 990 45 3 Image Chart
2001 10 13 12 18.5 129.9 990 45 3 Image Chart
2001 10 13 18 18.6 130.0 985 50 4 Image Chart
2001 10 14 00 19.3 129.8 985 50 4 Image Chart
2001 10 14 06 20.3 129.7 980 50 4 Image Chart
2001 10 14 12 21.1 129.5 975 55 4 Image Chart
2001 10 14 18 21.8 128.5 975 55 4 Image Chart
2001 10 15 00 22.1 127.8 975 55 4 Image Chart
2001 10 15 06 22.6 126.6 970 60 4 Image Chart
2001 10 15 12 23.1 125.7 970 60 4 Image Chart
2001 10 15 15 23.5 125.4 965 65 5 Image Chart
2001 10 15 18 23.9 125.1 965 65 5 Image Chart
2001 10 15 21 24.2 124.7 960 70 5 Image Chart
2001 10 16 00 24.5 124.4 960 70 5 Image Chart
2001 10 16 03 24.9 124.4 960 70 5 Image Chart
2001 10 16 06 25.4 124.5 960 70 5 Image Chart
2001 10 16 09 26.0 124.7 960 70 5 Image Chart
2001 10 16 12 26.3 125.0 960 70 5 Image Chart
2001 10 16 15 26.5 125.3 960 70 5 Image Chart
2001 10 16 18 27.0 125.8 965 65 5 Image Chart
2001 10 16 21 27.4 126.4 965 65 5 Image Chart
2001 10 17 00 27.6 127.1 970 60 4 Image Chart
2001 10 17 03 27.8 127.8 970 60 4 Image Chart
2001 10 17 06 28.2 128.7 970 55 4 Image Chart
2001 10 17 09 28.7 130.0 970 55 4 Image Chart
2001 10 17 12 29.1 130.8 975 50 4 Image Chart
2001 10 17 15 29.3 131.7 980 50 4 Image Chart
2001 10 17 18 29.5 133.2 980 50 4 Image Chart
2001 10 17 21 30.1 134.6 980 50 4 Image Chart
2001 10 18 00 30.7 136.4 985 45 3 Image Chart
2001 10 18 03 31.6 138.3 985 45 3 Image Chart
2001 10 18 06 32.5 139.6 990 45 3 Image Chart
2001 10 18 09 33.3 141.3 996 40 3 Image Chart
2001 10 18 12 33.5 143.4 1000 0 6 Image Chart
2001 10 18 18 33.6 145.8 1004 0 6 Image Chart
Japan Meteorological Agency Best Track Data | Correction Date : 2002-01-24
< Typhoon 200120 2001 Season Typhoon 200122 >

Help